Главная страница
METAR-TAF:

METAR-TAF

Аэропорты :

Веллингтон, Новая Зеландия

широта: 41-20S, долгота: 174-48E, высота над уровнем моря: 12 м

Текущие метеонаблюдения

Эта сводка был подготовлена 37 минут назад, в 23:30 UTC
Ветер 11 Узел от южный-юго-западный
Температура 17°C
Влажность 77%
Давление 1023 hPa
Видимость 10 км и более

METAR: NZWN 122330Z AUTO 20011KT 9999 NCD 17/13 Q1023 NOSIG

Время: 13:07 (00:07 UTC)

Прогноз

Эта сводка был подготовлена 42 минут назад, в 23:25 UTC
Прогноз действительный с 13-го 00 UTC до 14-го 00 UTC
Ветер 10 Узел от юго-юго-восточный
Видимость 10 км и более
небольшая облачность на высоте 2500 фута
изменения
С 13-го 07 UTC до 13-го 09 UTC
Рассеянная облачность на высоте 800 фута
изменения
С 13-го 18 UTC до 13-го 20 UTC
небольшая облачность на высоте 2500 фута

TAF: NZWN 122325Z 1300/1400 16010KT 9999 FEW025 BECMG 1307/1309 BKN008 BECMG 1318/1320 FEW025

Метеонаблюдения и прогнозы для более 4000 аэропортов (сводки METAR и TAF).

Имеющиеся станции представлены на карте желтыми и красными точками.

Чтобы увидеть название станции, наведите на нее мышь.

Затем щелкните, чтобы увидеть метеонаблюдения и метеопрогнозы.

Управление картой: чтобы увеличить масштаб, щелкните зеленые кнопки с черным крестиком; чтобы уменьшить масштаб, щелкните зеленую кнопку с тире; для просмотра соседних карт щелкайте зеленые стрелки.


METAR-TAF: